11:19
Airports
History
Links
Donate
Help keep this website running!
PayPal
Bitcoin
This page is community maintained. The information is intended for PC simulator navigation or reference.
Always use approved charts for navigation.
LIMS
PIACENZA
PIACENZA (LIMS)
San Giorgio Piacentino, Emilia-Romagna, Italy (29019)
(C)
Lat/Lng:44° 54' 51.94" N / 9° 43' 19.65" E
44.914428 / 9.722125
Elevation:456'ft / 139mMSL
ID / ICAO:LIMS
Runways:1
Longest:12-30
Asphalt 2,977m / 9,768ft
Controlled:Yes
METAR10:55 GMT 2017-12-11
Altimeter: 29.47
Visibility: 1.6 statute miles
Wind: 2 knots (from 330°)
Temp: 0°c / 32°f
Humidity: %

METAR: LIMS 111055Z 33002KT 2500 -RA BR SCT010 BKN020 00/00 Q0998

(Powered by phpweather)
Airport Radio Frequencies
Tower: 122.1, 136.07
Approach: 123.92
Nearby VORs <50NM
Nearby NDBs
Runway 12 / 30
Dimensions:2977.3 x 45.1m 9768' x 148'ft
Surface:Asphalt
Edge Lights:High intensity
Runway 12 [A]Runway 30 [B]
Heading:118°TH 298°TH
Lat:
Lng:
44° 55' 14.98"N
9° 42' 19.63"E
44° 54' 28.9"N
9° 44' 19.67"E
ALS:Calvert
TDZ:Yes, lighted
User Notes and Comments
44° 54' 51.94" N / 9° 43' 19.65" E
Distance To
Airport ID:
Nearby Airports
(U) Cremona Migliaro 22.2 NM
LILR NE 38°
(C) PARMA 28.8 NM
LIMP ESE 102°
(U) VOGHERA 34.6 NM
LILH W 274°
(C) Milano Linate 42.8 NM
LIML ( WX ) NNW 329°
(C) GHEDI 44.6 NM
LIPL ( WX ) NE 36°
(C) Montichiari 46.3 NM
LIPO NE 39°
4 Novi Ligure 46.8 NM
LIMR WSW 258°
VFR Chart
Flight Planning at SkyVector.com